AAL1292 KLAS-KDFW
Flight info
| Callsign | AAL1292 |
|---|---|
| Flight time | 2h 2m |
| Altitude | 35000 |
| Route | NIITZ4 SSKEE GUP J72 TXO TURKI VKTRY2 |
| Aircraft | A321/M-SDE3FGHIRWY/LB1 |
Departure
| Time | 2026-05-05 18:24 |
|---|---|
| Airport | Harry Reid International Airport (KLAS) |
Arrival
| Time | 2026-05-05 20:26 |
|---|---|
| Airport | Dallas Fort Worth International Airport (KDFW) |
| Time | Latitude | Longitude | Altitude | Speed | Heading |
|---|---|---|---|---|---|
| 2026-05-05 18:04 | 36.08023 | -115.13608 | 2071 ft | 0 kts | 47° |
| 2026-05-05 18:16 | 36.08015 | -115.13618 | 2072 ft | 2 kts | 47° |
| 2026-05-05 18:16 | 36.08005 | -115.13631 | 2072 ft | 2 kts | 47° |
| 2026-05-05 18:16 | 36.07995 | -115.13645 | 2073 ft | 2 kts | 56° |
| 2026-05-05 18:16 | 36.07988 | -115.13661 | 2073 ft | 2 kts | 74° |
| 2026-05-05 18:17 | 36.07986 | -115.13680 | 2074 ft | 2 kts | 90° |
| 2026-05-05 18:17 | 36.07988 | -115.13699 | 2074 ft | 2 kts | 107° |
| 2026-05-05 18:17 | 36.07994 | -115.13715 | 2074 ft | 2 kts | 123° |
| 2026-05-05 18:17 | 36.07999 | -115.13724 | 2075 ft | 0 kts | 134° |
| 2026-05-05 18:18 | 36.08004 | -115.13730 | 2075 ft | 0 kts | 135° |
| 2026-05-05 18:19 | 36.07970 | -115.13689 | 2074 ft | 15 kts | 135° |
| 2026-05-05 18:20 | 36.07926 | -115.13634 | 2073 ft | 2 kts | 135° |
| 2026-05-05 18:20 | 36.07925 | -115.13632 | 2073 ft | 0 kts | 135° |
| 2026-05-05 18:20 | 36.07923 | -115.13631 | 2073 ft | 3 kts | 135° |
| 2026-05-05 18:20 | 36.07848 | -115.13536 | 2072 ft | 21 kts | 130° |
| 2026-05-05 18:21 | 36.07827 | -115.13353 | 2067 ft | 23 kts | 90° |
| 2026-05-05 18:21 | 36.07827 | -115.13150 | 2062 ft | 23 kts | 90° |
| 2026-05-05 18:21 | 36.07827 | -115.12949 | 2059 ft | 23 kts | 90° |
| 2026-05-05 18:21 | 36.07827 | -115.12701 | 2053 ft | 30 kts | 90° |
| 2026-05-05 18:22 | 36.07827 | -115.12450 | 2051 ft | 28 kts | 90° |
| 2026-05-05 18:22 | 36.07824 | -115.12286 | 2048 ft | 14 kts | 106° |
| 2026-05-05 18:22 | 36.07770 | -115.12183 | 2048 ft | 14 kts | 128° |
| 2026-05-05 18:22 | 36.07731 | -115.12135 | 2047 ft | 10 kts | 156° |
| 2026-05-05 18:23 | 36.07657 | -115.12135 | 2048 ft | 7 kts | 226° |
| 2026-05-05 18:23 | 36.07644 | -115.12189 | 2048 ft | 6 kts | 268° |
| 2026-05-05 18:23 | 36.07644 | -115.12212 | 2048 ft | 0 kts | 270° |
| 2026-05-05 18:23 | 36.07644 | -115.12255 | 2049 ft | 22 kts | 270° |
| 2026-05-05 18:24 | 36.07642 | -115.12740 | 2055 ft | 90 kts | 270° |
| 2026-05-05 18:24 | 36.07643 | -115.13777 | 2081 ft | 148 kts | 269° |
| 2026-05-05 18:24 | 36.07643 | -115.15237 | 2267 ft | 181 kts | 269° |
| 2026-05-05 18:24 | 36.07656 | -115.16777 | 2911 ft | 181 kts | 269° |
| 2026-05-05 18:25 | 36.07692 | -115.18312 | 3592 ft | 181 kts | 270° |
| 2026-05-05 18:25 | 36.07723 | -115.19343 | 3977 ft | 178 kts | 269° |
| 2026-05-05 18:25 | 36.07591 | -115.21432 | 4320 ft | 190 kts | 257° |
| 2026-05-05 18:25 | 36.07317 | -115.23099 | 4584 ft | 202 kts | 257° |
| 2026-05-05 18:26 | 36.06992 | -115.24841 | 4831 ft | 214 kts | 248° |
| 2026-05-05 18:26 | 36.06040 | -115.26292 | 5056 ft | 225 kts | 211° |
| 2026-05-05 18:26 | 36.04559 | -115.27052 | 5301 ft | 240 kts | 198° |
| 2026-05-05 18:26 | 36.02923 | -115.27737 | 5644 ft | 254 kts | 198° |
| 2026-05-05 18:27 | 36.01196 | -115.28472 | 5980 ft | 268 kts | 195° |
| 2026-05-05 18:27 | 35.99328 | -115.28623 | 6460 ft | 275 kts | 168° |
| 2026-05-05 18:27 | 35.97617 | -115.27651 | 7168 ft | 274 kts | 142° |
| 2026-05-05 18:27 | 35.96177 | -115.26095 | 7782 ft | 278 kts | 138° |
| 2026-05-05 18:28 | 35.93283 | -115.22868 | 9066 ft | 284 kts | 139° |
| 2026-05-05 18:28 | 35.91876 | -115.21182 | 9706 ft | 285 kts | 132° |
| 2026-05-05 18:28 | 35.90670 | -115.19269 | 10275 ft | 289 kts | 124° |
| 2026-05-05 18:29 | 35.89576 | -115.17106 | 10605 ft | 303 kts | 121° |
| 2026-05-05 18:29 | 35.88426 | -115.14730 | 10883 ft | 317 kts | 121° |
| 2026-05-05 18:29 | 35.87395 | -115.12435 | 11126 ft | 330 kts | 114° |
| 2026-05-05 18:29 | 35.86747 | -115.09656 | 11421 ft | 344 kts | 98° |
| 2026-05-05 18:30 | 35.86708 | -115.06724 | 11931 ft | 348 kts | 87° |
| 2026-05-05 18:30 | 35.86874 | -115.03754 | 12525 ft | 349 kts | 85° |
| 2026-05-05 18:30 | 35.87063 | -115.00758 | 13060 ft | 350 kts | 85° |
| 2026-05-05 18:30 | 35.87236 | -114.97963 | 13530 ft | 354 kts | 85° |
| 2026-05-05 18:31 | 35.87419 | -114.94906 | 14052 ft | 358 kts | 85° |
| 2026-05-05 18:31 | 35.87595 | -114.91885 | 14573 ft | 359 kts | 86° |
| 2026-05-05 18:31 | 35.87758 | -114.88802 | 15109 ft | 361 kts | 85° |
| 2026-05-05 18:31 | 35.87929 | -114.85700 | 15610 ft | 365 kts | 85° |
| 2026-05-05 18:32 | 35.88100 | -114.82592 | 16114 ft | 366 kts | 85° |
| 2026-05-05 18:32 | 35.88267 | -114.79444 | 16604 ft | 369 kts | 85° |
| 2026-05-05 18:32 | 35.88437 | -114.76260 | 17067 ft | 372 kts | 86° |
| 2026-05-05 18:32 | 35.88600 | -114.73109 | 17564 ft | 374 kts | 86° |
| 2026-05-05 18:33 | 35.88770 | -114.69915 | 18040 ft | 376 kts | 86° |
| 2026-05-05 18:33 | 35.88942 | -114.66692 | 18473 ft | 378 kts | 86° |
| 2026-05-05 18:33 | 35.89116 | -114.63456 | 18816 ft | 381 kts | 86° |
| 2026-05-05 18:33 | 35.89290 | -114.60169 | 18900 ft | 382 kts | 86° |
| 2026-05-05 18:34 | 35.89458 | -114.56894 | 18914 ft | 382 kts | 85° |
| 2026-05-05 18:34 | 35.89620 | -114.53669 | 18902 ft | 383 kts | 87° |
| 2026-05-05 18:34 | 35.89668 | -114.50388 | 18906 ft | 382 kts | 90° |
| 2026-05-05 18:34 | 35.89650 | -114.47102 | 18906 ft | 383 kts | 90° |
| 2026-05-05 18:35 | 35.89627 | -114.43848 | 18914 ft | 385 kts | 90° |
| 2026-05-05 18:35 | 35.89605 | -114.40523 | 19159 ft | 390 kts | 90° |
| 2026-05-05 18:35 | 35.89581 | -114.37203 | 19699 ft | 390 kts | 89° |
| 2026-05-05 18:35 | 35.89566 | -114.33858 | 20211 ft | 390 kts | 90° |
| 2026-05-05 18:36 | 35.89550 | -114.30486 | 20657 ft | 391 kts | 90° |
| 2026-05-05 18:36 | 35.89534 | -114.27193 | 20985 ft | 395 kts | 90° |
| 2026-05-05 18:36 | 35.89512 | -114.23779 | 21377 ft | 397 kts | 90° |
| 2026-05-05 18:36 | 35.89489 | -114.20350 | 21764 ft | 400 kts | 90° |
| 2026-05-05 18:37 | 35.89467 | -114.16926 | 22175 ft | 402 kts | 90° |
| 2026-05-05 18:37 | 35.89441 | -114.13502 | 22549 ft | 405 kts | 90° |
| 2026-05-05 18:37 | 35.89413 | -114.09998 | 22925 ft | 407 kts | 90° |
| 2026-05-05 18:37 | 35.89385 | -114.06539 | 23314 ft | 409 kts | 90° |
| 2026-05-05 18:38 | 35.89355 | -114.03048 | 23685 ft | 411 kts | 90° |
| 2026-05-05 18:38 | 35.89322 | -113.99493 | 24051 ft | 412 kts | 90° |
| 2026-05-05 18:38 | 35.89288 | -113.95988 | 24360 ft | 414 kts | 90° |
| 2026-05-05 18:38 | 35.89255 | -113.92420 | 24657 ft | 417 kts | 90° |
| 2026-05-05 18:39 | 35.89222 | -113.88849 | 24935 ft | 420 kts | 90° |
| 2026-05-05 18:39 | 35.89189 | -113.85233 | 25241 ft | 422 kts | 90° |
| 2026-05-05 18:39 | 35.89158 | -113.81601 | 25550 ft | 423 kts | 91° |
| 2026-05-05 18:39 | 35.89121 | -113.78013 | 25787 ft | 425 kts | 91° |
| 2026-05-05 18:40 | 35.89079 | -113.74355 | 26022 ft | 428 kts | 91° |
| 2026-05-05 18:40 | 35.89045 | -113.70659 | 26281 ft | 431 kts | 91° |
| 2026-05-05 18:40 | 35.89006 | -113.67001 | 26520 ft | 433 kts | 91° |
| 2026-05-05 18:40 | 35.88964 | -113.63293 | 26730 ft | 436 kts | 90° |
| 2026-05-05 18:41 | 35.88913 | -113.59538 | 27027 ft | 438 kts | 91° |
| 2026-05-05 18:41 | 35.88815 | -113.55811 | 27289 ft | 439 kts | 94° |
| 2026-05-05 18:41 | 35.88553 | -113.52031 | 27419 ft | 444 kts | 97° |
| 2026-05-05 18:41 | 35.88110 | -113.48271 | 27578 ft | 446 kts | 101° |
| 2026-05-05 18:42 | 35.87577 | -113.44520 | 27764 ft | 449 kts | 101° |
| 2026-05-05 18:42 | 35.87021 | -113.40707 | 27957 ft | 452 kts | 101° |
| 2026-05-05 18:42 | 35.86470 | -113.36885 | 28178 ft | 453 kts | 102° |
| 2026-05-05 18:42 | 35.85926 | -113.33109 | 28322 ft | 457 kts | 102° |
| 2026-05-05 18:43 | 35.85558 | -113.30565 | 28454 ft | 458 kts | 102° |
| 2026-05-05 18:43 | 35.84836 | -113.25542 | 28629 ft | 461 kts | 102° |
| 2026-05-05 18:43 | 35.84273 | -113.21679 | 28892 ft | 462 kts | 102° |
| 2026-05-05 18:43 | 35.83706 | -113.17774 | 29184 ft | 461 kts | 102° |
| 2026-05-05 18:44 | 35.83161 | -113.14037 | 29475 ft | 461 kts | 102° |
| 2026-05-05 18:44 | 35.82595 | -113.10139 | 29815 ft | 460 kts | 102° |
| 2026-05-05 18:44 | 35.82027 | -113.06296 | 30034 ft | 459 kts | 102° |
| 2026-05-05 18:44 | 35.81462 | -113.02419 | 30189 ft | 461 kts | 102° |
| 2026-05-05 18:45 | 35.80322 | -112.94635 | 30324 ft | 468 kts | 103° |
| 2026-05-05 18:45 | 35.79738 | -112.90663 | 30617 ft | 469 kts | 103° |
| 2026-05-05 18:45 | 35.79155 | -112.86767 | 30911 ft | 464 kts | 102° |
| 2026-05-05 18:46 | 35.78580 | -112.82893 | 31168 ft | 463 kts | 103° |
| 2026-05-05 18:46 | 35.78012 | -112.78982 | 31226 ft | 466 kts | 104° |
| 2026-05-05 18:46 | 35.77436 | -112.75046 | 31370 ft | 470 kts | 104° |
| 2026-05-05 18:46 | 35.76839 | -112.71125 | 31540 ft | 471 kts | 104° |
| 2026-05-05 18:47 | 35.76249 | -112.67167 | 31711 ft | 471 kts | 105° |
| 2026-05-05 18:47 | 35.75652 | -112.63223 | 31857 ft | 472 kts | 105° |
| 2026-05-05 18:47 | 35.74441 | -112.55197 | 31994 ft | 479 kts | 106° |
| 2026-05-05 18:48 | 35.73840 | -112.51199 | 32151 ft | 482 kts | 105° |
| 2026-05-05 18:48 | 35.73223 | -112.47178 | 32333 ft | 481 kts | 106° |
| 2026-05-05 18:48 | 35.72617 | -112.43114 | 32550 ft | 481 kts | 106° |
| 2026-05-05 18:48 | 35.72012 | -112.39106 | 32653 ft | 484 kts | 107° |
| 2026-05-05 18:49 | 35.70795 | -112.31110 | 32887 ft | 487 kts | 107° |
| 2026-05-05 18:49 | 35.70165 | -112.26990 | 33101 ft | 485 kts | 108° |
| 2026-05-05 18:49 | 35.69546 | -112.22912 | 33273 ft | 485 kts | 108° |
| 2026-05-05 18:50 | 35.68933 | -112.18875 | 33398 ft | 488 kts | 109° |
| 2026-05-05 18:50 | 35.68299 | -112.14734 | 33476 ft | 491 kts | 109° |
| 2026-05-05 18:50 | 35.67016 | -112.06474 | 33694 ft | 496 kts | 108° |
| 2026-05-05 18:51 | 35.66382 | -112.02341 | 33912 ft | 495 kts | 108° |
| 2026-05-05 18:51 | 35.65738 | -111.98185 | 34135 ft | 495 kts | 108° |
| 2026-05-05 18:51 | 35.65100 | -111.94052 | 34236 ft | 497 kts | 108° |
| 2026-05-05 18:51 | 35.64446 | -111.89867 | 34321 ft | 500 kts | 109° |
| 2026-05-05 18:52 | 35.63803 | -111.85651 | 34466 ft | 502 kts | 108° |
| 2026-05-05 18:52 | 35.63306 | -111.81409 | 34599 ft | 507 kts | 103° |
| 2026-05-05 18:52 | 35.62825 | -111.72778 | 34765 ft | 512 kts | 99° |
| 2026-05-05 18:53 | 35.62653 | -111.68353 | 34878 ft | 515 kts | 100° |
| 2026-05-05 18:53 | 35.62480 | -111.63991 | 34901 ft | 515 kts | 100° |
| 2026-05-05 18:53 | 35.62123 | -111.55219 | 34963 ft | 516 kts | 100° |
| 2026-05-05 18:54 | 35.61738 | -111.46439 | 35161 ft | 519 kts | 99° |
| 2026-05-05 18:54 | 35.61356 | -111.37682 | 35016 ft | 515 kts | 100° |
| 2026-05-05 18:55 | 35.60974 | -111.29018 | 35131 ft | 516 kts | 101° |
| 2026-05-05 18:55 | 35.60777 | -111.24641 | 34960 ft | 519 kts | 101° |
| 2026-05-05 18:55 | 35.60569 | -111.20233 | 34936 ft | 520 kts | 101° |
| 2026-05-05 18:56 | 35.60366 | -111.15794 | 35191 ft | 521 kts | 102° |
| 2026-05-05 18:56 | 35.60165 | -111.11386 | 34901 ft | 521 kts | 101° |
| 2026-05-05 18:56 | 35.59952 | -111.06957 | 35086 ft | 521 kts | 102° |
| 2026-05-05 18:56 | 35.59740 | -111.02560 | 34912 ft | 521 kts | 102° |
| 2026-05-05 18:57 | 35.59524 | -110.98095 | 35130 ft | 523 kts | 102° |
| 2026-05-05 18:57 | 35.59310 | -110.93641 | 35070 ft | 520 kts | 102° |
| 2026-05-05 18:57 | 35.58872 | -110.84782 | 35013 ft | 524 kts | 102° |
| 2026-05-05 18:58 | 35.58433 | -110.75883 | 34996 ft | 523 kts | 102° |
| 2026-05-05 18:58 | 35.57996 | -110.67017 | 35006 ft | 523 kts | 102° |
| 2026-05-05 18:59 | 35.57535 | -110.58154 | 34999 ft | 522 kts | 101° |
| 2026-05-05 18:59 | 35.57074 | -110.49219 | 35008 ft | 528 kts | 102° |
| 2026-05-05 19:00 | 35.56610 | -110.40263 | 35015 ft | 529 kts | 103° |
| 2026-05-05 19:00 | 35.56133 | -110.31326 | 34984 ft | 527 kts | 103° |
| 2026-05-05 19:01 | 35.55662 | -110.22475 | 35008 ft | 530 kts | 103° |
| 2026-05-05 19:01 | 35.55165 | -110.13404 | 34992 ft | 534 kts | 103° |
| 2026-05-05 19:02 | 35.54675 | -110.04402 | 34998 ft | 533 kts | 103° |
| 2026-05-05 19:02 | 35.54162 | -109.95336 | 35014 ft | 533 kts | 104° |
| 2026-05-05 19:03 | 35.53639 | -109.86240 | 35000 ft | 536 kts | 104° |
| 2026-05-05 19:03 | 35.53117 | -109.77174 | 35012 ft | 534 kts | 104° |
| 2026-05-05 19:04 | 35.52586 | -109.68110 | 35017 ft | 534 kts | 103° |
| 2026-05-05 19:04 | 35.52046 | -109.59013 | 35018 ft | 538 kts | 103° |
| 2026-05-05 19:05 | 35.51503 | -109.49966 | 35023 ft | 535 kts | 103° |
| 2026-05-05 19:05 | 35.50950 | -109.40869 | 35032 ft | 536 kts | 104° |
| 2026-05-05 19:06 | 35.50394 | -109.31754 | 35021 ft | 536 kts | 103° |
| 2026-05-05 19:06 | 35.49836 | -109.22662 | 35022 ft | 538 kts | 104° |
| 2026-05-05 19:07 | 35.49278 | -109.13603 | 35042 ft | 534 kts | 104° |
| 2026-05-05 19:07 | 35.48695 | -109.04537 | 35044 ft | 536 kts | 104° |
| 2026-05-05 19:08 | 35.48114 | -108.95452 | 35046 ft | 537 kts | 103° |
| 2026-05-05 19:08 | 35.47307 | -108.86433 | 35053 ft | 530 kts | 110° |
| 2026-05-05 19:09 | 35.45725 | -108.77702 | 35053 ft | 522 kts | 115° |
| 2026-05-05 19:09 | 35.43933 | -108.69061 | 35056 ft | 522 kts | 115° |
| 2026-05-05 19:10 | 35.42161 | -108.60458 | 35051 ft | 523 kts | 115° |
| 2026-05-05 19:10 | 35.40401 | -108.51862 | 35048 ft | 524 kts | 115° |
| 2026-05-05 19:11 | 35.38644 | -108.43244 | 35053 ft | 522 kts | 115° |
| 2026-05-05 19:11 | 35.36868 | -108.34621 | 35050 ft | 524 kts | 115° |
| 2026-05-05 19:12 | 35.35094 | -108.25974 | 35051 ft | 524 kts | 114° |
| 2026-05-05 19:12 | 35.33328 | -108.17347 | 35053 ft | 525 kts | 115° |
| 2026-05-05 19:13 | 35.31540 | -108.08671 | 35060 ft | 524 kts | 115° |
| 2026-05-05 19:13 | 35.29733 | -108.00033 | 35061 ft | 525 kts | 115° |
| 2026-05-05 19:14 | 35.27932 | -107.91438 | 35062 ft | 523 kts | 115° |
| 2026-05-05 19:14 | 35.26127 | -107.82858 | 35060 ft | 523 kts | 115° |
| 2026-05-05 19:15 | 35.24308 | -107.74232 | 35055 ft | 524 kts | 115° |
| 2026-05-05 19:15 | 35.22484 | -107.65584 | 35050 ft | 525 kts | 115° |
| 2026-05-05 19:16 | 35.20662 | -107.56994 | 35047 ft | 524 kts | 115° |
| 2026-05-05 19:16 | 35.18830 | -107.48407 | 35044 ft | 525 kts | 115° |
| 2026-05-05 19:17 | 35.16978 | -107.39747 | 35028 ft | 527 kts | 115° |
| 2026-05-05 19:17 | 35.15124 | -107.31085 | 35029 ft | 527 kts | 115° |
| 2026-05-05 19:18 | 35.13297 | -107.22566 | 35014 ft | 526 kts | 115° |
| 2026-05-05 19:18 | 35.11440 | -107.13963 | 35011 ft | 527 kts | 116° |
| 2026-05-05 19:19 | 35.09572 | -107.05355 | 35005 ft | 526 kts | 116° |
| 2026-05-05 19:19 | 35.07691 | -106.96734 | 35002 ft | 525 kts | 116° |
| 2026-05-05 19:20 | 35.05811 | -106.88164 | 35006 ft | 526 kts | 116° |
| 2026-05-05 19:20 | 35.04096 | -106.79459 | 34995 ft | 535 kts | 110° |
| 2026-05-05 19:21 | 35.02959 | -106.70461 | 35001 ft | 538 kts | 108° |
| 2026-05-05 19:21 | 35.01903 | -106.61437 | 34992 ft | 539 kts | 108° |
| 2026-05-05 19:22 | 35.00815 | -106.52440 | 34988 ft | 539 kts | 108° |
| 2026-05-05 19:22 | 34.99699 | -106.43423 | 34987 ft | 540 kts | 108° |
| 2026-05-05 19:23 | 34.98575 | -106.34390 | 35002 ft | 540 kts | 108° |
| 2026-05-05 19:23 | 34.97454 | -106.25402 | 35009 ft | 540 kts | 109° |
| 2026-05-05 19:24 | 34.96324 | -106.16449 | 35023 ft | 537 kts | 108° |
| 2026-05-05 19:24 | 34.95181 | -106.07490 | 35017 ft | 538 kts | 108° |
| 2026-05-05 19:25 | 34.94029 | -105.98434 | 35019 ft | 540 kts | 108° |
| 2026-05-05 19:25 | 34.92880 | -105.89424 | 35025 ft | 539 kts | 108° |
| 2026-05-05 19:26 | 34.91727 | -105.80482 | 35020 ft | 541 kts | 108° |
| 2026-05-05 19:26 | 34.90554 | -105.71425 | 35018 ft | 538 kts | 108° |
| 2026-05-05 19:27 | 34.89365 | -105.62436 | 35020 ft | 539 kts | 108° |
| 2026-05-05 19:27 | 34.88224 | -105.53985 | 35019 ft | 538 kts | 108° |
| 2026-05-05 19:28 | 34.87026 | -105.45018 | 35007 ft | 539 kts | 108° |
| 2026-05-05 19:28 | 34.85824 | -105.35998 | 34996 ft | 538 kts | 108° |
| 2026-05-05 19:29 | 34.84670 | -105.27351 | 34993 ft | 537 kts | 109° |
| 2026-05-05 19:29 | 34.83457 | -105.18388 | 34985 ft | 539 kts | 108° |
| 2026-05-05 19:30 | 34.82247 | -105.09406 | 34989 ft | 539 kts | 108° |
| 2026-05-05 19:30 | 34.81041 | -105.00470 | 34992 ft | 539 kts | 109° |
| 2026-05-05 19:31 | 34.79810 | -104.91512 | 34972 ft | 541 kts | 109° |
| 2026-05-05 19:31 | 34.78567 | -104.82522 | 34979 ft | 540 kts | 109° |
| 2026-05-05 19:32 | 34.77329 | -104.73563 | 34981 ft | 540 kts | 109° |
| 2026-05-05 19:32 | 34.76081 | -104.64543 | 34972 ft | 539 kts | 109° |
| 2026-05-05 19:33 | 34.74817 | -104.55562 | 34960 ft | 542 kts | 109° |
| 2026-05-05 19:33 | 34.73559 | -104.46609 | 34954 ft | 543 kts | 108° |
| 2026-05-05 19:34 | 34.72284 | -104.37583 | 34953 ft | 542 kts | 109° |
| 2026-05-05 19:35 | 34.70386 | -104.24187 | 34955 ft | 543 kts | 109° |
| 2026-05-05 19:35 | 34.69093 | -104.15153 | 34961 ft | 542 kts | 110° |
| 2026-05-05 19:36 | 34.67792 | -104.06162 | 34961 ft | 543 kts | 109° |
| 2026-05-05 19:36 | 34.66483 | -103.97131 | 34964 ft | 546 kts | 109° |
| 2026-05-05 19:37 | 34.65160 | -103.88044 | 34961 ft | 547 kts | 109° |
| 2026-05-05 19:37 | 34.63843 | -103.79022 | 34964 ft | 545 kts | 109° |
| 2026-05-05 19:38 | 34.62502 | -103.69985 | 34960 ft | 546 kts | 109° |
| 2026-05-05 19:38 | 34.61159 | -103.60935 | 34944 ft | 547 kts | 109° |
| 2026-05-05 19:39 | 34.59819 | -103.51908 | 34950 ft | 546 kts | 110° |
| 2026-05-05 19:39 | 34.58469 | -103.42873 | 34941 ft | 546 kts | 110° |
| 2026-05-05 19:40 | 34.57103 | -103.33821 | 34944 ft | 548 kts | 109° |
| 2026-05-05 19:40 | 34.55805 | -103.25163 | 34938 ft | 546 kts | 110° |
| 2026-05-05 19:41 | 34.54404 | -103.15917 | 34938 ft | 546 kts | 110° |
| 2026-05-05 19:41 | 34.53026 | -103.06876 | 34933 ft | 548 kts | 109° |
| 2026-05-05 19:42 | 34.51635 | -102.97817 | 34949 ft | 548 kts | 110° |
| 2026-05-05 19:42 | 34.50238 | -102.88763 | 34941 ft | 549 kts | 110° |
| 2026-05-05 19:43 | 34.49005 | -102.79594 | 34924 ft | 554 kts | 105° |
| 2026-05-05 19:43 | 34.48063 | -102.70390 | 34938 ft | 556 kts | 105° |
| 2026-05-05 19:44 | 34.47133 | -102.61152 | 34943 ft | 555 kts | 105° |
| 2026-05-05 19:44 | 34.46175 | -102.51842 | 34936 ft | 555 kts | 105° |
| 2026-05-05 19:45 | 34.45208 | -102.42612 | 34937 ft | 557 kts | 105° |
| 2026-05-05 19:45 | 34.44223 | -102.33334 | 34930 ft | 556 kts | 106° |
| 2026-05-05 19:46 | 34.43251 | -102.24109 | 34940 ft | 554 kts | 106° |
| 2026-05-05 19:46 | 34.42256 | -102.14829 | 34932 ft | 556 kts | 105° |
| 2026-05-05 19:47 | 34.41264 | -102.05580 | 34926 ft | 557 kts | 105° |
| 2026-05-05 19:47 | 34.40251 | -101.96275 | 34932 ft | 556 kts | 105° |
| 2026-05-05 19:48 | 34.39409 | -101.88636 | 34924 ft | 557 kts | 105° |
| 2026-05-05 19:48 | 34.38212 | -101.77764 | 34927 ft | 558 kts | 105° |
| 2026-05-05 19:49 | 34.37192 | -101.68517 | 34922 ft | 559 kts | 105° |
| 2026-05-05 19:49 | 34.36149 | -101.59185 | 34916 ft | 560 kts | 105° |
| 2026-05-05 19:50 | 34.35101 | -101.49882 | 34907 ft | 561 kts | 104° |
| 2026-05-05 19:50 | 34.34038 | -101.40562 | 34910 ft | 561 kts | 104° |
| 2026-05-05 19:51 | 34.32989 | -101.31325 | 34904 ft | 561 kts | 105° |
| 2026-05-05 19:51 | 34.31935 | -101.22026 | 34905 ft | 561 kts | 105° |
| 2026-05-05 19:52 | 34.30859 | -101.12732 | 34906 ft | 561 kts | 105° |
| 2026-05-05 19:52 | 34.29768 | -101.03441 | 34897 ft | 563 kts | 105° |
| 2026-05-05 19:53 | 34.28671 | -100.94087 | 34887 ft | 562 kts | 104° |
| 2026-05-05 19:53 | 34.27571 | -100.84737 | 34891 ft | 563 kts | 105° |
| 2026-05-05 19:54 | 34.26466 | -100.75404 | 34881 ft | 562 kts | 104° |
| 2026-05-05 19:54 | 34.25359 | -100.66132 | 34875 ft | 561 kts | 105° |
| 2026-05-05 19:55 | 34.24241 | -100.56863 | 34870 ft | 561 kts | 104° |
| 2026-05-05 19:55 | 34.23107 | -100.47494 | 34864 ft | 560 kts | 105° |
| 2026-05-05 19:56 | 34.21975 | -100.38232 | 34874 ft | 560 kts | 104° |
| 2026-05-05 19:56 | 34.20807 | -100.29072 | 34866 ft | 558 kts | 108° |
| 2026-05-05 19:57 | 34.18905 | -100.20163 | 34872 ft | 548 kts | 117° |
| 2026-05-05 19:57 | 34.16295 | -100.11523 | 34868 ft | 547 kts | 120° |
| 2026-05-05 19:58 | 34.13650 | -100.02970 | 34861 ft | 544 kts | 119° |
| 2026-05-05 19:58 | 34.11039 | -99.94415 | 34866 ft | 545 kts | 118° |
| 2026-05-05 19:59 | 34.08442 | -99.85856 | 34857 ft | 544 kts | 118° |
| 2026-05-05 19:59 | 34.05838 | -99.77358 | 34865 ft | 546 kts | 118° |
| 2026-05-05 20:00 | 34.03221 | -99.68756 | 34844 ft | 545 kts | 118° |
| 2026-05-05 20:00 | 34.00603 | -99.60214 | 34830 ft | 546 kts | 118° |
| 2026-05-05 20:01 | 33.97961 | -99.51623 | 34837 ft | 548 kts | 118° |
| 2026-05-05 20:01 | 33.95330 | -99.43107 | 34829 ft | 546 kts | 118° |
| 2026-05-05 20:02 | 33.92685 | -99.34592 | 34768 ft | 542 kts | 119° |
| 2026-05-05 20:02 | 33.91366 | -99.30354 | 34148 ft | 543 kts | 119° |
| 2026-05-05 20:02 | 33.90062 | -99.26172 | 33029 ft | 549 kts | 118° |
| 2026-05-05 20:02 | 33.88710 | -99.21857 | 31921 ft | 558 kts | 119° |
| 2026-05-05 20:03 | 33.87323 | -99.17481 | 31016 ft | 559 kts | 117° |
| 2026-05-05 20:03 | 33.85930 | -99.13092 | 30190 ft | 558 kts | 118° |
| 2026-05-05 20:03 | 33.84905 | -99.09870 | 29649 ft | 556 kts | 115° |
| 2026-05-05 20:03 | 33.83557 | -99.05553 | 28845 ft | 555 kts | 116° |
| 2026-05-05 20:04 | 33.82180 | -99.01196 | 28040 ft | 554 kts | 116° |
| 2026-05-05 20:04 | 33.80824 | -98.96867 | 27422 ft | 548 kts | 116° |
| 2026-05-05 20:04 | 33.79510 | -98.92641 | 26922 ft | 538 kts | 117° |
| 2026-05-05 20:04 | 33.78191 | -98.88460 | 26400 ft | 531 kts | 117° |
| 2026-05-05 20:05 | 33.76889 | -98.84354 | 25880 ft | 525 kts | 117° |
| 2026-05-05 20:05 | 33.75599 | -98.80310 | 25357 ft | 518 kts | 116° |
| 2026-05-05 20:05 | 33.74338 | -98.76322 | 24918 ft | 510 kts | 116° |
| 2026-05-05 20:05 | 33.73080 | -98.72376 | 24523 ft | 501 kts | 117° |
| 2026-05-05 20:06 | 33.71846 | -98.68522 | 24026 ft | 494 kts | 116° |
| 2026-05-05 20:06 | 33.70608 | -98.64668 | 23476 ft | 490 kts | 116° |
| 2026-05-05 20:06 | 33.69401 | -98.60920 | 23014 ft | 484 kts | 116° |
| 2026-05-05 20:06 | 33.68214 | -98.57193 | 22673 ft | 475 kts | 116° |
| 2026-05-05 20:07 | 33.67045 | -98.53491 | 22131 ft | 473 kts | 115° |
| 2026-05-05 20:07 | 33.65886 | -98.49821 | 21562 ft | 470 kts | 116° |
| 2026-05-05 20:07 | 33.64735 | -98.46170 | 21026 ft | 468 kts | 116° |
| 2026-05-05 20:07 | 33.63583 | -98.42535 | 20544 ft | 463 kts | 116° |
| 2026-05-05 20:08 | 33.62450 | -98.38971 | 20012 ft | 459 kts | 116° |
| 2026-05-05 20:08 | 33.61328 | -98.35443 | 19472 ft | 456 kts | 116° |
| 2026-05-05 20:08 | 33.60203 | -98.31905 | 18946 ft | 453 kts | 117° |
| 2026-05-05 20:08 | 33.59146 | -98.28576 | 18512 ft | 447 kts | 117° |
| 2026-05-05 20:09 | 33.58040 | -98.25130 | 18074 ft | 440 kts | 117° |
| 2026-05-05 20:09 | 33.56959 | -98.21747 | 17548 ft | 437 kts | 116° |
| 2026-05-05 20:09 | 33.55873 | -98.18359 | 17037 ft | 433 kts | 117° |
| 2026-05-05 20:09 | 33.54797 | -98.15001 | 16673 ft | 428 kts | 117° |
| 2026-05-05 20:10 | 33.53732 | -98.11695 | 16141 ft | 424 kts | 117° |
| 2026-05-05 20:10 | 33.52678 | -98.08424 | 15628 ft | 420 kts | 117° |
| 2026-05-05 20:10 | 33.51619 | -98.05151 | 15176 ft | 415 kts | 117° |
| 2026-05-05 20:10 | 33.50584 | -98.01954 | 14722 ft | 410 kts | 117° |
| 2026-05-05 20:11 | 33.49557 | -97.98782 | 14277 ft | 405 kts | 117° |
| 2026-05-05 20:11 | 33.48537 | -97.95644 | 13953 ft | 396 kts | 117° |
| 2026-05-05 20:11 | 33.47580 | -97.92671 | 13882 ft | 379 kts | 117° |
| 2026-05-05 20:11 | 33.46636 | -97.89741 | 13543 ft | 373 kts | 118° |
| 2026-05-05 20:12 | 33.45703 | -97.86859 | 13166 ft | 368 kts | 117° |
| 2026-05-05 20:12 | 33.44790 | -97.84016 | 12799 ft | 364 kts | 117° |
| 2026-05-05 20:12 | 33.43880 | -97.81211 | 12379 ft | 361 kts | 117° |
| 2026-05-05 20:12 | 33.42977 | -97.78432 | 12015 ft | 359 kts | 116° |
| 2026-05-05 20:13 | 33.42083 | -97.75646 | 11641 ft | 357 kts | 116° |
| 2026-05-05 20:13 | 33.41201 | -97.72920 | 11220 ft | 353 kts | 116° |
| 2026-05-05 20:13 | 33.40318 | -97.70178 | 10879 ft | 350 kts | 116° |
| 2026-05-05 20:13 | 33.39447 | -97.67493 | 10546 ft | 344 kts | 115° |
| 2026-05-05 20:14 | 33.38559 | -97.64916 | 10490 ft | 327 kts | 121° |
| 2026-05-05 20:14 | 33.37465 | -97.62605 | 10297 ft | 315 kts | 130° |
| 2026-05-05 20:14 | 33.36626 | -97.61179 | 10075 ft | 312 kts | 132° |
| 2026-05-05 20:14 | 33.34895 | -97.58423 | 9604 ft | 309 kts | 133° |
| 2026-05-05 20:15 | 33.33611 | -97.56390 | 9284 ft | 307 kts | 132° |
| 2026-05-05 20:15 | 33.32757 | -97.55032 | 9068 ft | 306 kts | 131° |
| 2026-05-05 20:15 | 33.31077 | -97.52320 | 8620 ft | 303 kts | 130° |
| 2026-05-05 20:15 | 33.29835 | -97.50289 | 8279 ft | 301 kts | 131° |
| 2026-05-05 20:16 | 33.28592 | -97.48268 | 7937 ft | 298 kts | 130° |
| 2026-05-05 20:16 | 33.27491 | -97.46181 | 7599 ft | 300 kts | 116° |
| 2026-05-05 20:16 | 33.26974 | -97.43795 | 7275 ft | 302 kts | 97° |
| 2026-05-05 20:16 | 33.26835 | -97.41266 | 6949 ft | 301 kts | 94° |
| 2026-05-05 20:17 | 33.26762 | -97.38802 | 6604 ft | 299 kts | 94° |
| 2026-05-05 20:17 | 33.26665 | -97.36326 | 6260 ft | 297 kts | 94° |
| 2026-05-05 20:17 | 33.26555 | -97.33887 | 5924 ft | 294 kts | 95° |
| 2026-05-05 20:17 | 33.26434 | -97.31380 | 5578 ft | 292 kts | 95° |
| 2026-05-05 20:18 | 33.26315 | -97.29060 | 5284 ft | 289 kts | 95° |
| 2026-05-05 20:18 | 33.26186 | -97.26667 | 5051 ft | 282 kts | 95° |
| 2026-05-05 20:18 | 33.26065 | -97.24382 | 5015 ft | 271 kts | 95° |
| 2026-05-05 20:18 | 33.25797 | -97.22158 | 5010 ft | 271 kts | 107° |
| 2026-05-05 20:19 | 33.25169 | -97.20038 | 5009 ft | 268 kts | 119° |
| 2026-05-05 20:19 | 33.24443 | -97.18417 | 5008 ft | 267 kts | 123° |
| 2026-05-05 20:19 | 33.23874 | -97.17122 | 5006 ft | 268 kts | 118° |
| 2026-05-05 20:19 | 33.23264 | -97.15505 | 5009 ft | 268 kts | 116° |
| 2026-05-05 20:20 | 33.22923 | -97.14545 | 5010 ft | 267 kts | 115° |
| 2026-05-05 20:20 | 33.22222 | -97.12483 | 5013 ft | 268 kts | 114° |
| 2026-05-05 20:20 | 33.21532 | -97.10407 | 5011 ft | 268 kts | 114° |
| 2026-05-05 20:20 | 33.20854 | -97.08342 | 5007 ft | 267 kts | 114° |
| 2026-05-05 20:21 | 33.20031 | -97.06389 | 4990 ft | 263 kts | 134° |
| 2026-05-05 20:21 | 33.18560 | -97.05243 | 5003 ft | 250 kts | 171° |
| 2026-05-05 20:21 | 33.16822 | -97.05102 | 5027 ft | 248 kts | 185° |
| 2026-05-05 20:21 | 33.15099 | -97.05207 | 4897 ft | 248 kts | 187° |
| 2026-05-05 20:22 | 33.13381 | -97.05301 | 4613 ft | 247 kts | 186° |
| 2026-05-05 20:22 | 33.11665 | -97.05349 | 4301 ft | 246 kts | 185° |
| 2026-05-05 20:22 | 33.09927 | -97.05368 | 3984 ft | 246 kts | 184° |
| 2026-05-05 20:22 | 33.08229 | -97.05382 | 3683 ft | 246 kts | 184° |
| 2026-05-05 20:23 | 33.06508 | -97.05387 | 3366 ft | 244 kts | 184° |
| 2026-05-05 20:23 | 33.04850 | -97.05393 | 3030 ft | 231 kts | 184° |
| 2026-05-05 20:23 | 33.03294 | -97.05397 | 2783 ft | 210 kts | 185° |
| 2026-05-05 20:23 | 33.01908 | -97.05401 | 2576 ft | 192 kts | 185° |
| 2026-05-05 20:24 | 33.00613 | -97.05412 | 2325 ft | 182 kts | 186° |
| 2026-05-05 20:24 | 32.99378 | -97.05420 | 2096 ft | 169 kts | 185° |
| 2026-05-05 20:24 | 32.98241 | -97.05427 | 1876 ft | 155 kts | 184° |
| 2026-05-05 20:24 | 32.97204 | -97.05428 | 1673 ft | 148 kts | 185° |
| 2026-05-05 20:25 | 32.96176 | -97.05434 | 1486 ft | 145 kts | 185° |
| 2026-05-05 20:25 | 32.95175 | -97.05450 | 1302 ft | 144 kts | 185° |
| 2026-05-05 20:25 | 32.94170 | -97.05457 | 1115 ft | 143 kts | 184° |
| 2026-05-05 20:25 | 32.93183 | -97.05468 | 951 ft | 142 kts | 183° |
| 2026-05-05 20:26 | 32.92192 | -97.05463 | 766 ft | 142 kts | 182° |
| 2026-05-05 20:26 | 32.91214 | -97.05464 | 612 ft | 136 kts | 182° |
| 2026-05-05 20:26 | 32.90407 | -97.05472 | 617 ft | 89 kts | 179° |
| 2026-05-05 20:26 | 32.89959 | -97.05474 | 613 ft | 39 kts | 180° |
| 2026-05-05 20:27 | 32.89768 | -97.05469 | 610 ft | 26 kts | 174° |
| 2026-05-05 20:27 | 32.89597 | -97.05407 | 606 ft | 25 kts | 154° |
| 2026-05-05 20:27 | 32.89457 | -97.05317 | 602 ft | 18 kts | 151° |
| 2026-05-05 20:27 | 32.89359 | -97.05284 | 601 ft | 18 kts | 178° |
| 2026-05-05 20:28 | 32.89202 | -97.05283 | 597 ft | 19 kts | 181° |
| 2026-05-05 20:28 | 32.89063 | -97.05285 | 593 ft | 21 kts | 180° |
| 2026-05-05 20:28 | 32.88901 | -97.05284 | 590 ft | 24 kts | 180° |
| 2026-05-05 20:28 | 32.88720 | -97.05285 | 586 ft | 24 kts | 180° |
| 2026-05-05 20:29 | 32.88612 | -97.05226 | 584 ft | 19 kts | 108° |
| 2026-05-05 20:29 | 32.88607 | -97.05022 | 583 ft | 29 kts | 89° |
| 2026-05-05 20:29 | 32.88607 | -97.04782 | 581 ft | 28 kts | 91° |